Time;durP1;ratioP1;P1;durP2;ratioP2;P2;SDS_P1;SDS_P2;PMS_P1;PMS_P2;Temp;Humidity;BMP_temperature;BMP_pressure;BME280_temperature;BME280_humidity;BME280_pressure;Samples;Min_cycle;Max_cycle;Signal;HPM_P1;HPM_P2
2021/05/28 00:00:27;;;;;;;0.68;0.68;;;;;;;;;;5053705;28;20183;-44
2021/05/28 00:02:53;;;;;;;1.33;0.70;;;;;;;;;;5053438;28;20687;-44
2021/05/28 00:05:19;;;;;;;1.23;0.70;;;;;;;;;;5054289;28;20234;-44
2021/05/28 00:07:46;;;;;;;1.08;0.80;;;;;;;;;;5054884;28;20171;-44
2021/05/28 00:10:12;;;;;;;1.58;1.02;;;;;;;;;;5036847;28;20185;-44
2021/05/28 00:12:39;;;;;;;1.55;0.60;;;;;;;;;;5034370;28;20171;-44
2021/05/28 00:15:06;;;;;;;0.70;0.70;;;;;;;;;;5046963;28;20465;-44
2021/05/28 00:17:32;;;;;;;1.85;1.02;;;;;;;;;;5054602;28;20175;-44
2021/05/28 00:19:58;;;;;;;0.82;0.70;;;;;;;;;;5039098;28;20274;-44
2021/05/28 00:22:24;;;;;;;0.82;0.70;;;;;;;;;;5034076;28;20203;-44
2021/05/28 00:24:50;;;;;;;1.33;0.80;;;;;;;;;;5036525;28;20290;-44
2021/05/28 00:27:16;;;;;;;1.00;0.75;;;;;;;;;;5052131;28;20175;-44
2021/05/28 00:29:42;;;;;;;0.60;0.60;;;;;;;;;;5041259;28;20172;-44
2021/05/28 00:32:08;;;;;;;0.70;0.70;;;;;;;;;;5034052;28;20168;-44
2021/05/28 00:34:34;;;;;;;0.80;0.80;;;;;;;;;;5034559;28;20183;-44
2021/05/28 00:37:01;;;;;;;0.80;0.80;;;;;;;;;;5054042;28;20179;-44
2021/05/28 00:39:27;;;;;;;0.90;0.90;;;;;;;;;;5043809;28;20438;-44
2021/05/28 00:41:53;;;;;;;0.70;0.70;;;;;;;;;;5034139;28;20175;-44
2021/05/28 00:44:22;;;;;;;1.35;0.70;;;;;;;;;;5034403;28;20298;-44
2021/05/28 00:46:48;;;;;;;1.15;0.63;;;;;;;;;;5051862;28;20187;-44
2021/05/28 00:49:14;;;;;;;3.63;0.90;;;;;;;;;;5049805;28;20192;-44
2021/05/28 00:51:40;;;;;;;0.95;0.80;;;;;;;;;;5053904;28;20166;-44
2021/05/28 00:54:06;;;;;;;1.13;0.85;;;;;;;;;;5054026;28;20175;-44
2021/05/28 00:56:32;;;;;;;0.70;0.60;;;;;;;;;;5053854;28;20198;-44
2021/05/28 00:59:00;;;;;;;0.88;0.80;;;;;;;;;;5053593;28;20179;-44
2021/05/28 01:01:26;;;;;;;0.70;0.70;;;;;;;;;;5052793;28;20710;-44
2021/05/28 01:03:52;;;;;;;0.68;0.68;;;;;;;;;;5041352;28;20199;-44
2021/05/28 01:06:18;;;;;;;0.75;0.60;;;;;;;;;;5057818;28;20183;-44
2021/05/28 01:08:45;;;;;;;1.25;0.77;;;;;;;;;;5053497;28;20172;-44
2021/05/28 01:11:11;;;;;;;1.00;0.90;;;;;;;;;;5037604;28;20251;-44
2021/05/28 01:13:36;;;;;;;0.70;0.70;;;;;;;;;;5037854;28;20467;-44
2021/05/28 01:16:03;;;;;;;0.70;0.70;;;;;;;;;;5049065;28;20190;-44
2021/05/28 01:18:29;;;;;;;0.85;0.80;;;;;;;;;;5057240;28;20578;-44
2021/05/28 01:20:55;;;;;;;0.60;0.60;;;;;;;;;;5057349;28;20217;-44
2021/05/28 01:23:21;;;;;;;0.52;0.52;;;;;;;;;;5057999;28;20175;-44
2021/05/28 01:25:47;;;;;;;1.05;0.75;;;;;;;;;;5057384;28;20258;-44
2021/05/28 01:28:13;;;;;;;0.77;0.75;;;;;;;;;;5057558;28;20175;-44
2021/05/28 01:30:39;;;;;;;0.70;0.70;;;;;;;;;;5037432;28;20183;-44
2021/05/28 01:33:05;;;;;;;0.82;0.65;;;;;;;;;;5037793;28;20214;-44
2021/05/28 01:35:31;;;;;;;0.63;0.63;;;;;;;;;;5043859;28;20179;-44
2021/05/28 01:37:57;;;;;;;1.58;0.68;;;;;;;;;;5057488;28;20214;-44
2021/05/28 01:40:23;;;;;;;1.38;0.80;;;;;;;;;;5056804;28;20605;-44
2021/05/28 01:42:50;;;;;;;1.65;0.80;;;;;;;;;;5056923;28;20230;-44
2021/05/28 01:45:17;;;;;;;0.60;0.60;;;;;;;;;;5056758;28;20199;-44
2021/05/28 01:47:43;;;;;;;0.70;0.70;;;;;;;;;;5037849;28;20190;-44
2021/05/28 01:50:10;;;;;;;0.52;0.52;;;;;;;;;;5042237;28;20180;-44
2021/05/28 01:52:36;;;;;;;0.82;0.82;;;;;;;;;;5037998;28;20318;-44
2021/05/28 01:55:03;;;;;;;0.80;0.63;;;;;;;;;;5050142;28;20549;-44
2021/05/28 01:57:29;;;;;;;0.50;0.50;;;;;;;;;;5056909;28;20511;-44
2021/05/28 01:59:55;;;;;;;1.67;0.75;;;;;;;;;;5056296;28;20191;-45
2021/05/28 02:02:21;;;;;;;0.63;0.63;;;;;;;;;;5055413;28;20183;-44
2021/05/28 02:04:47;;;;;;;0.50;0.50;;;;;;;;;;5055419;28;20206;-44
2021/05/28 02:07:13;;;;;;;1.13;0.80;;;;;;;;;;5056324;28;20202;-44
2021/05/28 02:09:39;;;;;;;0.60;0.60;;;;;;;;;;5055494;28;20459;-44
2021/05/28 02:12:05;;;;;;;1.08;0.60;;;;;;;;;;5056093;28;20167;-44
2021/05/28 02:14:31;;;;;;;0.50;0.50;;;;;;;;;;5056701;28;20190;-44
2021/05/28 02:16:58;;;;;;;1.35;0.75;;;;;;;;;;5056934;28;20245;-44
2021/05/28 02:19:24;;;;;;;0.57;0.57;;;;;;;;;;5050919;28;20183;-44
2021/05/28 02:21:51;;;;;;;0.60;0.60;;;;;;;;;;5034056;28;20195;-44
2021/05/28 02:24:17;;;;;;;1.50;0.55;;;;;;;;;;5037112;28;20195;-44
2021/05/28 02:26:47;;;;;;;0.50;0.50;;;;;;;;;;5056476;28;20167;-44
2021/05/28 02:29:14;;;;;;;0.55;0.55;;;;;;;;;;5053221;28;20263;-44
2021/05/28 02:31:40;;;;;;;0.60;0.60;;;;;;;;;;5035966;28;20187;-44
2021/05/28 02:34:07;;;;;;;0.95;0.80;;;;;;;;;;5046386;28;20225;-44
2021/05/28 02:36:33;;;;;;;0.57;0.57;;;;;;;;;;5038064;28;20500;-44
2021/05/28 02:38:59;;;;;;;0.63;0.50;;;;;;;;;;5047900;28;20550;-44
2021/05/28 02:41:25;;;;;;;0.98;0.98;;;;;;;;;;5035699;28;20179;-44
2021/05/28 02:43:51;;;;;;;1.10;0.80;;;;;;;;;;5038740;28;20198;-44
2021/05/28 02:46:18;;;;;;;0.65;0.60;;;;;;;;;;5056292;28;20175;-44
2021/05/28 02:48:44;;;;;;;0.50;0.50;;;;;;;;;;5056106;28;20275;-44
2021/05/28 02:51:10;;;;;;;0.55;0.55;;;;;;;;;;5055208;28;20520;-44
2021/05/28 02:53:36;;;;;;;0.65;0.55;;;;;;;;;;5055989;28;20261;-44
2021/05/28 02:56:03;;;;;;;1.02;0.63;;;;;;;;;;5055648;28;20218;-43
2021/05/28 02:58:29;;;;;;;0.60;0.60;;;;;;;;;;5055928;28;20335;-43
2021/05/28 03:00:55;;;;;;;0.75;0.70;;;;;;;;;;5054472;28;20171;-43
2021/05/28 03:03:22;;;;;;;0.50;0.50;;;;;;;;;;5043756;28;20195;-43
2021/05/28 03:05:50;;;;;;;0.70;0.50;;;;;;;;;;5051877;28;20206;-43
2021/05/28 03:08:16;;;;;;;0.70;0.60;;;;;;;;;;5055597;28;20254;-43
2021/05/28 03:10:42;;;;;;;0.60;0.60;;;;;;;;;;5040655;28;20256;-44
2021/05/28 03:13:08;;;;;;;0.77;0.60;;;;;;;;;;5035564;28;20303;-44
2021/05/28 03:15:34;;;;;;;1.08;0.90;;;;;;;;;;5055060;28;20175;-44
2021/05/28 03:18:00;;;;;;;0.50;0.50;;;;;;;;;;5055435;28;20214;-44
2021/05/28 03:20:34;;;;;;;0.52;0.52;;;;;;;;;;5054537;28;20349;-44
2021/05/28 03:23:00;;;;;;;0.63;0.60;;;;;;;;;;5055128;28;20171;-44
2021/05/28 03:25:26;;;;;;;0.57;0.57;;;;;;;;;;5053920;28;20585;-44
2021/05/28 03:27:53;;;;;;;0.45;0.45;;;;;;;;;;5055162;28;20185;-44
2021/05/28 03:30:20;;;;;;;0.50;0.50;;;;;;;;;;5044792;28;20183;-44
2021/05/28 03:32:46;;;;;;;0.52;0.52;;;;;;;;;;5055038;28;20167;-44
2021/05/28 03:35:12;;;;;;;0.60;0.60;;;;;;;;;;5054884;28;20238;-44
2021/05/28 03:37:42;;;;;;;0.50;0.50;;;;;;;;;;5054871;28;20198;-44
2021/05/28 03:40:08;;;;;;;1.00;0.80;;;;;;;;;;5054487;28;20191;-44
2021/05/28 03:42:34;;;;;;;0.50;0.50;;;;;;;;;;5054736;28;20525;-44
2021/05/28 03:45:00;;;;;;;0.60;0.50;;;;;;;;;;5054547;28;20277;-44
2021/05/28 03:47:26;;;;;;;0.60;0.60;;;;;;;;;;5055153;28;20167;-44
2021/05/28 03:49:52;;;;;;;0.55;0.55;;;;;;;;;;5042359;28;20203;-44
2021/05/28 03:52:18;;;;;;;0.60;0.60;;;;;;;;;;5054339;28;20542;-44
2021/05/28 03:54:44;;;;;;;0.57;0.57;;;;;;;;;;5054656;28;20262;-44
2021/05/28 03:57:10;;;;;;;0.52;0.50;;;;;;;;;;5054888;28;20187;-44
2021/05/28 03:59:36;;;;;;;0.77;0.60;;;;;;;;;;5050678;28;20188;-44
2021/05/28 04:02:03;;;;;;;0.73;0.70;;;;;;;;;;5034446;28;20485;-44
2021/05/28 04:04:29;;;;;;;0.63;0.60;;;;;;;;;;5053396;28;20439;-44
2021/05/28 04:06:55;;;;;;;0.60;0.60;;;;;;;;;;5054967;28;20159;-44
2021/05/28 04:09:20;;;;;;;0.43;0.43;;;;;;;;;;5053098;28;20171;-44
2021/05/28 04:11:46;;;;;;;0.57;0.57;;;;;;;;;;5034326;28;20175;-44
2021/05/28 04:14:14;;;;;;;0.43;0.43;;;;;;;;;;5044474;28;20254;-43
2021/05/28 04:16:40;;;;;;;0.50;0.50;;;;;;;;;;5054337;28;20454;-43
2021/05/28 04:19:06;;;;;;;0.70;0.70;;;;;;;;;;5054658;28;20171;-43
2021/05/28 04:21:32;;;;;;;0.55;0.55;;;;;;;;;;5053467;28;20182;-43
2021/05/28 04:24:00;;;;;;;0.50;0.50;;;;;;;;;;5054070;28;20186;-43
2021/05/28 04:26:26;;;;;;;0.52;0.52;;;;;;;;;;5054786;28;20236;-44
2021/05/28 04:28:52;;;;;;;0.50;0.50;;;;;;;;;;5054612;28;20213;-44
2021/05/28 04:31:18;;;;;;;0.60;0.60;;;;;;;;;;5052822;28;20553;-44
2021/05/28 04:33:44;;;;;;;0.47;0.47;;;;;;;;;;5054108;28;20183;-44
2021/05/28 04:36:10;;;;;;;0.90;0.70;;;;;;;;;;5056258;28;20790;-44
2021/05/28 04:38:37;;;;;;;0.68;0.50;;;;;;;;;;5058411;28;20301;-44
2021/05/28 04:41:03;;;;;;;0.75;0.68;;;;;;;;;;5057624;28;20194;-44
2021/05/28 04:43:29;;;;;;;0.65;0.65;;;;;;;;;;5058137;28;20233;-44
2021/05/28 04:45:55;;;;;;;0.57;0.57;;;;;;;;;;5058477;28;20230;-44
2021/05/28 04:48:21;;;;;;;0.70;0.70;;;;;;;;;;5057835;28;20167;-44
2021/05/28 04:50:47;;;;;;;0.60;0.60;;;;;;;;;;5057448;28;20179;-44
2021/05/28 04:53:13;;;;;;;0.60;0.60;;;;;;;;;;5058043;28;20170;-44
2021/05/28 04:55:39;;;;;;;0.57;0.57;;;;;;;;;;5057831;28;20230;-44
2021/05/28 04:58:05;;;;;;;0.50;0.50;;;;;;;;;;5057851;28;20183;-44
2021/05/28 05:00:32;;;;;;;0.93;0.60;;;;;;;;;;5048402;28;20175;-44
2021/05/28 05:02:58;;;;;;;0.50;0.50;;;;;;;;;;5048564;28;20226;-44
2021/05/28 05:05:26;;;;;;;0.95;0.50;;;;;;;;;;5057551;28;20199;-44
2021/05/28 05:07:52;;;;;;;0.68;0.52;;;;;;;;;;5057837;28;20620;-44
2021/05/28 05:10:18;;;;;;;0.45;0.45;;;;;;;;;;5057183;28;20199;-44
2021/05/28 05:12:44;;;;;;;0.60;0.60;;;;;;;;;;5057209;28;20503;-44
2021/05/28 05:15:11;;;;;;;0.50;0.50;;;;;;;;;;5049636;28;20179;-44
2021/05/28 05:17:37;;;;;;;0.60;0.60;;;;;;;;;;5047051;28;20207;-44
2021/05/28 05:20:04;;;;;;;0.52;0.52;;;;;;;;;;5049264;28;20589;-44
2021/05/28 05:22:31;;;;;;;0.70;0.70;;;;;;;;;;5037214;28;20175;-44
2021/05/28 05:24:57;;;;;;;2.05;0.77;;;;;;;;;;5053428;28;20199;-44
2021/05/28 05:27:23;;;;;;;1.42;1.10;;;;;;;;;;5057715;28;20222;-44
2021/05/28 05:29:49;;;;;;;1.58;1.00;;;;;;;;;;5056785;28;20179;-44
2021/05/28 05:32:15;;;;;;;1.42;0.85;;;;;;;;;;5049782;28;20214;-44
2021/05/28 05:34:41;;;;;;;2.45;0.98;;;;;;;;;;5048942;28;20190;-44
2021/05/28 05:37:07;;;;;;;3.35;1.23;;;;;;;;;;5046298;28;20337;-44
2021/05/28 05:39:34;;;;;;;4.60;1.05;;;;;;;;;;5056496;28;20214;-44
2021/05/28 05:42:03;;;;;;;1.95;1.05;;;;;;;;;;5056672;28;20296;-44
2021/05/28 05:44:29;;;;;;;3.35;1.27;;;;;;;;;;5050475;28;20281;-43
2021/05/28 05:46:56;;;;;;;2.08;0.90;;;;;;;;;;5042100;28;20447;-43
2021/05/28 05:49:22;;;;;;;3.55;1.10;;;;;;;;;;5051437;28;20183;-43
2021/05/28 05:51:48;;;;;;;2.20;1.00;;;;;;;;;;5056467;28;20281;-44
2021/05/28 05:54:14;;;;;;;2.38;0.93;;;;;;;;;;5046128;28;20379;-44
2021/05/28 05:56:41;;;;;;;2.50;1.05;;;;;;;;;;5056404;28;20202;-44
2021/05/28 05:59:07;;;;;;;2.05;1.17;;;;;;;;;;5056647;28;20207;-43
2021/05/28 06:01:34;;;;;;;6.30;1.38;;;;;;;;;;5053992;28;20209;-43
2021/05/28 06:04:00;;;;;;;4.57;0.95;;;;;;;;;;5052842;28;20785;-43
2021/05/28 06:06:27;;;;;;;3.90;1.25;;;;;;;;;;5056929;28;20246;-43
2021/05/28 06:08:53;;;;;;;2.47;0.93;;;;;;;;;;5056570;28;20273;-43
2021/05/28 06:11:20;;;;;;;2.28;1.10;;;;;;;;;;5056529;28;20604;-44
2021/05/28 06:13:47;;;;;;;2.33;1.00;;;;;;;;;;5056002;28;20179;-43
2021/05/28 06:16:13;;;;;;;1.90;1.08;;;;;;;;;;5057045;28;20359;-43
2021/05/28 06:18:39;;;;;;;2.63;1.10;;;;;;;;;;5042877;28;20209;-43
2021/05/28 06:21:06;;;;;;;2.38;1.02;;;;;;;;;;5053340;28;20282;-44
2021/05/28 06:23:33;;;;;;;1.52;0.82;;;;;;;;;;5055470;28;20175;-44
2021/05/28 06:25:59;;;;;;;1.58;0.95;;;;;;;;;;5055486;28;20238;-44
2021/05/28 06:28:25;;;;;;;3.55;1.00;;;;;;;;;;5046209;28;20203;-44
2021/05/28 06:30:51;;;;;;;2.13;0.90;;;;;;;;;;5053151;28;20186;-43
2021/05/28 06:33:17;;;;;;;2.05;0.98;;;;;;;;;;5053548;28;20251;-43
2021/05/28 06:35:44;;;;;;;3.45;0.80;;;;;;;;;;5056235;28;20171;-43
2021/05/28 06:38:10;;;;;;;0.70;0.70;;;;;;;;;;5056328;28;20186;-43
2021/05/28 06:40:37;;;;;;;2.45;0.90;;;;;;;;;;5055433;28;20247;-43
2021/05/28 06:43:04;;;;;;;2.60;0.90;;;;;;;;;;5055524;28;20213;-44
2021/05/28 06:45:30;;;;;;;2.17;1.10;;;;;;;;;;5047272;28;20211;-43
2021/05/28 06:47:56;;;;;;;2.03;1.00;;;;;;;;;;5053604;28;20258;-43
2021/05/28 06:50:22;;;;;;;2.53;0.93;;;;;;;;;;5044947;28;20542;-43
2021/05/28 06:52:49;;;;;;;2.72;0.77;;;;;;;;;;5054307;28;20168;-43
2021/05/28 06:55:15;;;;;;;1.95;0.95;;;;;;;;;;5056047;28;20573;-44
2021/05/28 06:57:41;;;;;;;4.68;1.20;;;;;;;;;;5053663;28;20290;-44
2021/05/28 07:00:09;;;;;;;4.75;1.60;;;;;;;;;;5050822;28;20175;-44
2021/05/28 07:02:35;;;;;;;3.80;1.45;;;;;;;;;;5053967;28;20245;-44
2021/05/28 07:05:01;;;;;;;4.68;1.13;;;;;;;;;;5052657;28;20207;-44
2021/05/28 07:07:28;;;;;;;4.43;1.25;;;;;;;;;;5035761;28;20176;-44
2021/05/28 07:09:54;;;;;;;4.60;1.20;;;;;;;;;;5037044;28;20167;-44
2021/05/28 07:12:20;;;;;;;2.85;1.08;;;;;;;;;;5054084;28;20194;-44
2021/05/28 07:14:46;;;;;;;4.03;1.10;;;;;;;;;;5043451;28;20180;-44
2021/05/28 07:17:12;;;;;;;2.95;1.00;;;;;;;;;;5043251;28;20203;-44
2021/05/28 07:19:38;;;;;;;3.90;0.90;;;;;;;;;;5046001;28;20238;-44
2021/05/28 07:22:05;;;;;;;2.30;1.10;;;;;;;;;;5054826;28;20194;-44
2021/05/28 07:24:31;;;;;;;3.95;1.48;;;;;;;;;;5041533;28;20551;-44
2021/05/28 07:26:57;;;;;;;3.20;1.25;;;;;;;;;;5043012;28;20180;-44
2021/05/28 07:29:23;;;;;;;6.28;1.30;;;;;;;;;;5035494;28;20218;-44
2021/05/28 07:31:49;;;;;;;7.63;1.83;;;;;;;;;;5041118;28;20251;-44
2021/05/28 07:34:15;;;;;;;5.30;1.17;;;;;;;;;;5052041;28;20172;-44
2021/05/28 07:36:41;;;;;;;5.70;1.65;;;;;;;;;;5053649;28;20183;-44
2021/05/28 07:39:08;;;;;;;2.30;1.27;;;;;;;;;;5051971;28;20214;-44
2021/05/28 07:41:34;;;;;;;7.00;1.60;;;;;;;;;;5048283;28;20194;-44
2021/05/28 07:44:00;;;;;;;2.88;1.20;;;;;;;;;;5050947;28;20692;-44
2021/05/28 07:46:27;;;;;;;3.38;1.33;;;;;;;;;;5051628;28;21648;-44
2021/05/28 07:48:53;;;;;;;2.55;0.95;;;;;;;;;;5042542;28;20558;-43
2021/05/28 07:51:19;;;;;;;5.22;1.75;;;;;;;;;;5049055;28;20221;-43
2021/05/28 07:53:45;;;;;;;2.63;1.10;;;;;;;;;;5040943;28;20205;-43
2021/05/28 07:56:11;;;;;;;1.85;1.20;;;;;;;;;;5034961;28;20795;-43
2021/05/28 07:58:37;;;;;;;2.95;0.80;;;;;;;;;;5036120;28;20187;-43
2021/05/28 08:01:03;;;;;;;2.80;1.17;;;;;;;;;;5038146;28;20190;-44
2021/05/28 08:03:29;;;;;;;2.28;0.80;;;;;;;;;;5049358;28;20601;-44
2021/05/28 08:05:56;;;;;;;2.55;1.02;;;;;;;;;;5053532;28;20195;-44
2021/05/28 08:08:26;;;;;;;1.55;0.85;;;;;;;;;;5052823;28;20183;-44
2021/05/28 08:10:52;;;;;;;2.13;1.00;;;;;;;;;;5048853;28;20175;-44
2021/05/28 08:13:18;;;;;;;2.67;0.93;;;;;;;;;;5049605;28;20441;-44
2021/05/28 08:15:44;;;;;;;2.67;0.88;;;;;;;;;;5043942;28;20250;-44
2021/05/28 08:18:10;;;;;;;1.17;0.98;;;;;;;;;;5045801;28;20458;-44
2021/05/28 08:20:36;;;;;;;1.17;0.80;;;;;;;;;;5039496;28;20179;-44
2021/05/28 08:23:02;;;;;;;1.20;0.80;;;;;;;;;;5040349;28;20190;-43
2021/05/28 08:25:28;;;;;;;2.55;0.80;;;;;;;;;;5050601;28;20212;-43
2021/05/28 08:27:55;;;;;;;1.23;0.80;;;;;;;;;;5037981;28;20218;-43
2021/05/28 08:30:21;;;;;;;1.67;1.00;;;;;;;;;;5034414;28;20200;-43
2021/05/28 08:32:47;;;;;;;2.15;0.73;;;;;;;;;;5035906;28;20171;-44
2021/05/28 08:35:14;;;;;;;1.40;0.98;;;;;;;;;;5044912;28;20202;-43
2021/05/28 08:37:40;;;;;;;2.58;0.90;;;;;;;;;;5040913;28;20318;-44
2021/05/28 08:40:07;;;;;;;1.08;0.80;;;;;;;;;;5035689;28;20172;-44
2021/05/28 08:42:33;;;;;;;1.73;0.80;;;;;;;;;;5047542;28;20438;-43
2021/05/28 08:45:00;;;;;;;1.38;1.00;;;;;;;;;;5040556;28;20198;-45
2021/05/28 08:47:26;;;;;;;1.95;0.70;;;;;;;;;;5054322;28;20499;-44
2021/05/28 08:49:53;;;;;;;2.08;0.77;;;;;;;;;;5036146;28;20266;-44
2021/05/28 08:52:20;;;;;;;2.33;0.90;;;;;;;;;;5035382;28;20171;-44
2021/05/28 08:54:49;;;;;;;2.95;0.80;;;;;;;;;;5052642;28;20273;-44
2021/05/28 08:57:16;;;;;;;2.03;0.57;;;;;;;;;;5040737;28;20214;-44
2021/05/28 08:59:42;;;;;;;0.55;0.52;;;;;;;;;;5039297;28;20263;-44
2021/05/28 09:02:26;;;;;;;0.60;0.60;;;;;;;;;;5034143;28;20531;-43
2021/05/28 09:05:06;;;;;;;2.08;0.80;;;;;;;;;;5050278;28;20215;-43
2021/05/28 09:07:32;;;;;;;1.50;0.80;;;;;;;;;;5034644;28;20174;-43
2021/05/28 09:09:58;;;;;;;1.40;0.77;;;;;;;;;;5045064;28;20179;-43
2021/05/28 09:12:28;;;;;;;1.30;0.80;;;;;;;;;;5050455;28;20183;-43
2021/05/28 09:14:54;;;;;;;1.40;0.82;;;;;;;;;;5044966;28;20180;-44
2021/05/28 09:17:20;;;;;;;1.25;0.52;;;;;;;;;;5054695;28;20509;-44
2021/05/28 09:19:54;;;;;;;1.17;0.65;;;;;;;;;;5043801;28;20257;-44
2021/05/28 09:22:21;;;;;;;0.68;0.60;;;;;;;;;;5040042;28;20274;-44
2021/05/28 09:24:47;;;;;;;1.08;0.68;;;;;;;;;;5057833;28;20202;-43
2021/05/28 09:27:33;;;;;;;1.38;0.90;;;;;;;;;;5050994;28;20250;-43
2021/05/28 09:29:59;;;;;;;1.40;0.80;;;;;;;;;;5055107;28;20240;-43
2021/05/28 09:32:26;;;;;;;3.17;0.82;;;;;;;;;;5037219;28;20184;-43
2021/05/28 09:34:52;;;;;;;2.45;0.80;;;;;;;;;;5050663;28;20187;-44
2021/05/28 09:37:18;;;;;;;1.67;1.13;;;;;;;;;;5057682;28;20167;-47
2021/05/28 09:39:44;;;;;;;2.25;1.00;;;;;;;;;;5053568;28;20274;-45
2021/05/28 09:42:11;;;;;;;4.50;1.00;;;;;;;;;;5054455;28;20261;-41
2021/05/28 09:44:37;;;;;;;2.80;1.08;;;;;;;;;;5051323;28;20209;-43
2021/05/28 09:47:09;;;;;;;1.05;0.82;;;;;;;;;;5057363;28;20160;-42
2021/05/28 09:49:36;;;;;;;4.30;1.33;;;;;;;;;;5051098;28;20622;-43
2021/05/28 09:52:07;;;;;;;5.30;1.10;;;;;;;;;;5037733;28;20172;-43
2021/05/28 09:54:33;;;;;;;4.80;1.20;;;;;;;;;;5045431;28;20195;-45
2021/05/28 09:56:59;;;;;;;7.28;1.50;;;;;;;;;;5056119;28;20199;-43
2021/05/28 09:59:25;;;;;;;5.43;2.10;;;;;;;;;;5056896;28;20183;-43
2021/05/28 10:02:02;;;;;;;8.02;2.60;;;;;;;;;;5040010;28;20235;-40
2021/05/28 10:04:32;;;;;;;8.82;2.88;;;;;;;;;;5049882;28;20313;-44
2021/05/28 10:06:58;;;;;;;4.40;2.20;;;;;;;;;;5053398;28;20538;-41
2021/05/28 10:09:25;;;;;;;4.93;1.90;;;;;;;;;;5056397;28;20286;-43
2021/05/28 10:11:52;;;;;;;10.63;2.78;;;;;;;;;;5055404;28;20186;-43
2021/05/28 10:14:18;;;;;;;20.88;4.97;;;;;;;;;;5054718;28;20183;-42
2021/05/28 10:16:44;;;;;;;17.48;5.45;;;;;;;;;;5056941;28;20201;-43
2021/05/28 10:19:10;;;;;;;19.65;5.57;;;;;;;;;;5054631;28;20171;-43
2021/05/28 10:21:36;;;;;;;22.88;6.75;;;;;;;;;;5051802;28;20171;-41
2021/05/28 10:24:02;;;;;;;28.58;7.35;;;;;;;;;;5056260;28;20179;-41
2021/05/28 10:26:29;;;;;;;23.08;6.85;;;;;;;;;;5056230;28;20398;-41
2021/05/28 10:28:56;;;;;;;25.05;6.50;;;;;;;;;;5056029;28;20210;-41
2021/05/28 10:32:00;;;;;;;17.08;7.05;;;;;;;;;;5055668;28;20179;-41
2021/05/28 10:34:28;;;;;;;17.92;5.43;;;;;;;;;;5011363;28;20752;-41
2021/05/28 10:36:56;;;;;;;15.30;5.65;;;;;;;;;;5014817;28;20183;-41
2021/05/28 10:39:23;;;;;;;15.23;5.15;;;;;;;;;;5033430;28;20450;-41
2021/05/28 10:41:55;;;;;;;18.88;5.45;;;;;;;;;;5046665;28;20183;-41
2021/05/28 10:44:23;;;;;;;13.50;4.85;;;;;;;;;;5047899;28;20237;-41
2021/05/28 10:46:53;;;;;;;13.32;4.78;;;;;;;;;;5050876;28;20262;-41
2021/05/28 10:49:19;;;;;;;13.40;4.28;;;;;;;;;;5038936;28;20180;-41
2021/05/28 10:51:45;;;;;;;12.93;4.07;;;;;;;;;;5045676;28;20179;-41
2021/05/28 10:54:11;;;;;;;10.85;3.88;;;;;;;;;;5055843;28;20196;-41
2021/05/28 10:56:37;;;;;;;10.02;3.58;;;;;;;;;;5055685;28;20221;-41
2021/05/28 10:59:10;;;;;;;12.20;3.97;;;;;;;;;;5055957;28;20178;-41
2021/05/28 11:01:45;;;;;;;8.95;3.13;;;;;;;;;;5055138;28;20183;-41
2021/05/28 11:04:12;;;;;;;8.38;3.20;;;;;;;;;;5046622;28;20198;-41
2021/05/28 11:07:08;;;;;;;8.02;3.10;;;;;;;;;;5055398;28;20183;-41
2021/05/28 11:09:39;;;;;;;7.75;3.08;;;;;;;;;;5027786;28;20462;-41
2021/05/28 11:12:07;;;;;;;8.27;2.95;;;;;;;;;;5043024;28;20217;-41
2021/05/28 11:14:35;;;;;;;6.88;2.92;;;;;;;;;;5044421;28;20207;-41
2021/05/28 11:17:01;;;;;;;6.85;2.53;;;;;;;;;;5052991;28;20183;-41
2021/05/28 11:19:29;;;;;;;4.93;2.67;;;;;;;;;;5050426;28;20219;-41
2021/05/28 11:22:05;;;;;;;4.13;2.13;;;;;;;;;;5035284;28;20574;-41
2021/05/28 11:24:44;;;;;;;7.90;2.88;;;;;;;;;;5038214;28;20184;-41
2021/05/28 11:27:36;;;;;;;5.70;2.05;;;;;;;;;;5044982;28;20201;-41
2021/05/28 11:30:02;;;;;;;5.20;2.20;;;;;;;;;;5042470;28;20175;-41
2021/05/28 11:32:31;;;;;;;5.28;2.00;;;;;;;;;;5054391;28;20168;-41
2021/05/28 11:35:14;;;;;;;6.60;2.30;;;;;;;;;;5055674;28;20175;-41
2021/05/28 11:38:00;;;;;;;5.03;2.00;;;;;;;;;;5055042;28;20190;-41
2021/05/28 11:40:28;;;;;;;6.75;2.20;;;;;;;;;;5054487;28;20290;-41
2021/05/28 11:43:03;;;;;;;3.78;1.90;;;;;;;;;;5037049;28;20176;-41
2021/05/28 11:45:29;;;;;;;3.65;2.00;;;;;;;;;;5050307;28;20241;-41
2021/05/28 11:47:55;;;;;;;3.03;1.70;;;;;;;;;;5044460;28;20233;-41
2021/05/28 11:50:22;;;;;;;3.25;2.10;;;;;;;;;;5049051;28;20180;-41
2021/05/28 11:52:57;;;;;;;3.40;2.10;;;;;;;;;;5050265;28;20179;-41
2021/05/28 11:55:23;;;;;;;4.50;1.80;;;;;;;;;;5048992;28;20546;-41
2021/05/28 11:58:00;;;;;;;2.25;1.65;;;;;;;;;;5044282;28;20227;-41
2021/05/28 12:00:26;;;;;;;3.95;2.20;;;;;;;;;;5044826;28;20184;-41
2021/05/28 12:02:55;;;;;;;2.83;1.88;;;;;;;;;;5042946;28;20183;-41
2021/05/28 12:05:22;;;;;;;3.38;1.70;;;;;;;;;;5042290;28;20199;-41
2021/05/28 12:07:49;;;;;;;5.75;1.58;;;;;;;;;;5042458;28;20190;-41
2021/05/28 12:10:15;;;;;;;4.55;1.77;;;;;;;;;;5054424;28;20183;-41
2021/05/28 12:13:01;;;;;;;2.47;1.70;;;;;;;;;;5039136;28;20176;-41
2021/05/28 12:15:30;;;;;;;3.38;1.70;;;;;;;;;;5046272;28;20185;-41
2021/05/28 12:17:56;;;;;;;2.45;1.75;;;;;;;;;;5035052;28;20234;-41
2021/05/28 12:20:24;;;;;;;4.53;2.08;;;;;;;;;;5045855;28;20269;-41
2021/05/28 12:22:59;;;;;;;3.05;1.80;;;;;;;;;;5054395;28;20182;-41
2021/05/28 12:25:25;;;;;;;6.07;1.90;;;;;;;;;;5042340;28;20214;-41
2021/05/28 12:27:51;;;;;;;4.78;1.95;;;;;;;;;;5051033;28;20194;-41
2021/05/28 12:30:23;;;;;;;7.70;2.08;;;;;;;;;;5052050;28;20167;-41
2021/05/28 12:32:49;;;;;;;11.35;2.50;;;;;;;;;;5035276;28;20660;-41
2021/05/28 12:35:16;;;;;;;4.93;1.90;;;;;;;;;;5050396;28;20183;-41
2021/05/28 12:38:01;;;;;;;5.00;2.20;;;;;;;;;;5035601;28;20198;-41
2021/05/28 12:40:28;;;;;;;7.47;2.60;;;;;;;;;;5044130;28;20186;-41
2021/05/28 12:42:55;;;;;;;8.63;2.10;;;;;;;;;;5052007;28;20546;-41
2021/05/28 12:45:21;;;;;;;8.52;2.30;;;;;;;;;;5034025;28;20231;-41
2021/05/28 12:47:47;;;;;;;6.03;2.53;;;;;;;;;;5035602;28;20623;-41
2021/05/28 12:50:32;;;;;;;4.93;2.03;;;;;;;;;;5053638;28;20189;-41
2021/05/28 12:52:59;;;;;;;3.47;2.13;;;;;;;;;;5043009;28;20181;-41
2021/05/28 12:55:29;;;;;;;4.05;2.55;;;;;;;;;;5051814;28;20183;-41
2021/05/28 12:57:55;;;;;;;4.75;2.47;;;;;;;;;;5037781;28;20203;-41
2021/05/28 13:00:50;;;;;;;4.25;2.03;;;;;;;;;;5052649;28;20191;-41
2021/05/28 13:03:30;;;;;;;3.72;2.20;;;;;;;;;;5043835;28;20571;-41
2021/05/28 13:05:56;;;;;;;4.07;2.33;;;;;;;;;;5050792;28;20247;-41
2021/05/28 13:08:32;;;;;;;6.57;2.25;;;;;;;;;;5047054;28;20175;-41
2021/05/28 13:10:59;;;;;;;3.40;2.13;;;;;;;;;;5056959;28;20245;-41
2021/05/28 13:13:25;;;;;;;6.50;2.15;;;;;;;;;;5057836;28;20171;-41
2021/05/28 13:15:51;;;;;;;4.28;1.80;;;;;;;;;;5055283;28;20194;-41
2021/05/28 13:18:18;;;;;;;5.30;2.13;;;;;;;;;;5048435;28;20245;-41
2021/05/28 13:20:45;;;;;;;5.32;2.20;;;;;;;;;;5040099;28;20187;-41
2021/05/28 13:23:29;;;;;;;8.95;2.28;;;;;;;;;;5056451;28;20252;-41
2021/05/28 13:25:55;;;;;;;6.63;2.00;;;;;;;;;;5057754;28;20589;-41
2021/05/28 13:28:23;;;;;;;4.47;2.13;;;;;;;;;;5048023;28;20272;-41
2021/05/28 13:30:56;;;;;;;3.45;2.10;;;;;;;;;;5043806;28;20195;-41
2021/05/28 13:33:26;;;;;;;6.15;2.28;;;;;;;;;;5054301;28;20190;-41
2021/05/28 13:36:11;;;;;;;5.35;2.13;;;;;;;;;;5057935;28;20582;-41
2021/05/28 13:38:40;;;;;;;2.88;1.75;;;;;;;;;;5052812;28;20253;-41
2021/05/28 13:41:11;;;;;;;4.22;1.90;;;;;;;;;;5045704;28;20171;-41
2021/05/28 13:43:38;;;;;;;3.97;2.25;;;;;;;;;;5053400;28;20214;-41
2021/05/28 13:46:05;;;;;;;3.55;1.92;;;;;;;;;;5042420;28;20233;-41
2021/05/28 13:48:32;;;;;;;6.03;2.30;;;;;;;;;;5048162;28;20179;-41
2021/05/28 13:50:58;;;;;;;2.80;1.88;;;;;;;;;;5052494;28;20561;-41
2021/05/28 13:53:24;;;;;;;4.18;1.83;;;;;;;;;;5055556;28;20218;-41
2021/05/28 13:55:50;;;;;;;3.15;2.00;;;;;;;;;;5056785;28;20207;-41
2021/05/28 13:58:17;;;;;;;3.92;1.40;;;;;;;;;;5056402;28;20183;-41
2021/05/28 14:00:43;;;;;;;2.65;1.65;;;;;;;;;;5055045;28;20175;-41
2021/05/28 14:03:09;;;;;;;2.72;1.75;;;;;;;;;;5054958;28;20258;-41
2021/05/28 14:05:36;;;;;;;4.97;1.83;;;;;;;;;;5055762;28;20269;-41
2021/05/28 14:08:02;;;;;;;3.33;1.90;;;;;;;;;;5050220;28;20179;-41
2021/05/28 14:10:29;;;;;;;4.65;2.10;;;;;;;;;;5056625;28;20186;-41
2021/05/28 14:12:55;;;;;;;4.18;1.80;;;;;;;;;;5055592;28;20175;-41
2021/05/28 14:15:22;;;;;;;1.98;1.50;;;;;;;;;;5056674;28;20185;-41
2021/05/28 14:17:48;;;;;;;2.88;1.75;;;;;;;;;;5045450;28;20183;-41
2021/05/28 14:20:15;;;;;;;2.97;1.60;;;;;;;;;;5054621;28;20190;-41
2021/05/28 14:22:41;;;;;;;2.97;1.88;;;;;;;;;;5052582;28;20186;-41
2021/05/28 14:25:08;;;;;;;3.67;1.90;;;;;;;;;;5054723;28;20191;-41
2021/05/28 14:27:35;;;;;;;6.80;2.53;;;;;;;;;;5056030;28;20202;-41
2021/05/28 14:30:01;;;;;;;5.38;1.80;;;;;;;;;;5056307;28;20197;-41
2021/05/28 14:32:27;;;;;;;3.50;1.70;;;;;;;;;;5039762;28;20640;-41
2021/05/28 14:34:54;;;;;;;2.47;1.58;;;;;;;;;;5051027;28;20745;-41
2021/05/28 14:37:20;;;;;;;5.28;1.70;;;;;;;;;;5056166;28;20207;-41
2021/05/28 14:39:46;;;;;;;2.78;1.75;;;;;;;;;;5056041;28;20570;-41
2021/05/28 14:42:13;;;;;;;3.30;1.73;;;;;;;;;;5041346;28;20190;-41
2021/05/28 14:44:39;;;;;;;4.18;1.98;;;;;;;;;;5039409;28;20270;-41